SBGO/GYN METAR and TAF weather

Enter ICAO airport designator
Station Type Date Time Source
SBGO METAR 2020/12/06 02:00 UTC NOAA

SBGO 060200Z 21007KT 9999 SCT040 BKN060 24/20 Q1018


Station Type Date Time Source
SBGO Decoded METAR 2020/12/06 02:00 UTC NOAA

Goiania Aeroporto , Brazil (SBGO) 16-38S 049-13W
Dec 05, 2020 - 09:00 PM EST / 2020.12.06 0200 UTC
Wind: from the SSW (210 degrees) at 8 MPH (7 KT):0
Visibility: greater than 7 mile(s):0
Sky conditions: mostly cloudy
Temperature: 75 F (24 C)
Dew Point: 68 F (20 C)
Relative Humidity: 78%
Pressure (altimeter): 30.06 in. Hg (1018 hPa)
ob: SBGO 060200Z 21007KT 9999 SCT040 BKN060 24/20 Q1018
cycle: 2

Station Type Date Time Source
SBGO TAF 2020/12/06 06:24 UTC NOAA

TAF TAF SBGO 060115Z 0606/0706 09003KT 9999 FEW040 TN22/0609Z TX29/0618Z
TEMPO 0606/0608 SHRA SCT030 FEW040TCU
BECMG 0608/0610 03007KT SCT020 PROB30
TEMPO 0615/0624 35008KT 8000 TSRA SCT030 FEW040CB PROB30
TEMPO 0700/0706 02005KT 9000 RA
RMK PGL

Example: see airport list